createdAt,value
2019-03-20T00:00:04.831Z,39.10
2019-03-20T00:05:06.646Z,37.53
2019-03-20T00:10:08.891Z,40.53
2019-03-20T00:15:10.709Z,32.53
2019-03-20T00:20:12.741Z,37.93
2019-03-20T00:25:14.522Z,37.73
2019-03-20T00:30:16.279Z,40.27
2019-03-20T00:35:18.088Z,38.33
2019-03-20T00:40:19.865Z,36.43
2019-03-20T00:45:21.736Z,39.50
2019-03-20T00:50:23.449Z,38.50
2019-03-20T00:55:25.287Z,37.43
2019-03-20T01:00:27.057Z,41.13
2019-03-20T01:05:28.841Z,34.47
2019-03-20T01:10:30.617Z,42.37
2019-03-20T01:15:32.393Z,38.63
2019-03-20T01:20:34.161Z,34.63
2019-03-20T01:25:35.946Z,35.87
2019-03-20T01:30:37.736Z,32.27
2019-03-20T01:35:39.463Z,35.40
2019-03-20T01:40:41.191Z,35.70
2019-03-20T01:45:42.948Z,36.73
2019-03-20T01:50:44.863Z,31.00
2019-03-20T01:55:46.578Z,30.83
2019-03-20T02:00:48.304Z,34.07
2019-03-20T02:05:50.066Z,37.50
2019-03-20T02:10:51.834Z,35.17
2019-03-20T02:15:53.614Z,39.40
2019-03-20T02:20:55.391Z,41.10
2019-03-20T02:25:57.170Z,31.97
2019-03-20T02:30:58.914Z,35.83
2019-03-20T02:36:00.798Z,33.80
2019-03-20T02:41:02.522Z,32.57
2019-03-20T02:46:04.241Z,33.00
2019-03-20T02:51:05.950Z,34.17
2019-03-20T02:56:07.898Z,33.13
2019-03-20T03:01:09.712Z,31.07
2019-03-20T03:06:11.429Z,34.13
2019-03-20T03:11:13.258Z,37.83
2019-03-20T03:16:14.994Z,32.50
2019-03-20T03:21:16.811Z,31.30
2019-03-20T03:26:18.519Z,35.20
2019-03-20T03:31:20.375Z,38.80
2019-03-20T03:36:22.131Z,34.70
2019-03-20T03:41:23.904Z,33.53
2019-03-20T03:46:25.628Z,32.67
2019-03-20T03:51:27.377Z,35.20
2019-03-20T03:56:29.074Z,29.50
2019-03-20T04:01:30.818Z,28.87
2019-03-20T04:06:35.947Z,31.43
2019-03-20T04:11:36.217Z,28.63
2019-03-20T04:16:37.941Z,30.13
2019-03-20T04:21:39.774Z,30.93
2019-03-20T04:26:41.549Z,33.97
2019-03-20T04:31:43.315Z,30.67
2019-03-20T04:36:48.134Z,31.60
2019-03-20T04:41:48.622Z,35.40
2019-03-20T04:46:50.345Z,38.33
2019-03-20T04:51:52.065Z,35.67
2019-03-20T04:56:53.796Z,34.37
2019-03-20T05:01:55.626Z,35.03
2019-03-20T05:06:59.151Z,36.77
2019-03-20T05:12:01.036Z,37.07
2019-03-20T05:17:02.754Z,34.20
2019-03-20T05:22:04.571Z,33.17
2019-03-20T05:27:06.307Z,36.77
2019-03-20T05:32:08.116Z,35.17
2019-03-20T05:37:10.917Z,37.73
2019-03-20T05:42:12.786Z,30.93
2019-03-20T05:47:14.575Z,33.20
2019-03-20T05:52:16.367Z,40.13
2019-03-20T05:57:18.136Z,32.43
2019-03-20T06:02:19.923Z,38.37
2019-03-20T06:07:22.102Z,28.20
2019-03-20T06:12:23.969Z,31.30
2019-03-20T06:17:25.737Z,30.20
2019-03-20T06:22:27.519Z,31.23
2019-03-20T06:27:29.306Z,32.73
2019-03-20T06:32:31.071Z,31.60
2019-03-20T06:37:33.033Z,32.77
2019-03-20T06:42:34.845Z,28.33
2019-03-20T06:47:36.613Z,30.10
2019-03-20T06:52:39.221Z,25.20
2019-03-20T06:57:40.982Z,26.03
2019-03-20T07:02:44.297Z,25.67
2019-03-20T07:07:46.083Z,29.00
2019-03-20T07:12:47.849Z,23.77
2019-03-20T07:17:49.634Z,29.23
2019-03-20T07:22:51.415Z,28.77
2019-03-20T07:27:53.207Z,19.10
2019-03-20T07:32:55.075Z,18.50
2019-03-20T07:37:56.853Z,15.43
2019-03-20T07:43:08.099Z,17.50
2019-03-20T07:48:02.120Z,16.93
2019-03-20T07:53:03.901Z,17.10
2019-03-20T07:58:05.690Z,13.63
2019-03-20T08:03:07.423Z,14.30
2019-03-20T08:08:09.225Z,15.67
2019-03-20T08:13:11.013Z,13.67
2019-03-20T08:18:12.791Z,13.03
2019-03-20T08:23:14.523Z,11.70
2019-03-20T08:28:19.341Z,13.47
2019-03-20T08:33:21.068Z,14.80
2019-03-20T08:38:22.857Z,9.73
2019-03-20T08:43:24.589Z,13.17
2019-03-20T08:48:26.305Z,13.30
2019-03-20T08:53:28.088Z,13.57
2019-03-20T08:58:29.869Z,15.27
2019-03-20T09:03:31.591Z,12.83
2019-03-20T09:08:33.309Z,13.87
2019-03-20T09:13:35.105Z,17.47
2019-03-20T09:18:36.885Z,13.60
2019-03-20T09:23:40.759Z,12.37
2019-03-20T09:28:42.176Z,7.90
2019-03-20T09:33:43.960Z,13.10
2019-03-20T09:38:45.677Z,9.07
2019-03-20T09:43:47.492Z,11.60
2019-03-20T09:48:49.211Z,12.53
2019-03-20T09:53:51.046Z,10.03
2019-03-20T09:58:52.830Z,11.97
2019-03-20T10:03:54.592Z,8.00
2019-03-20T10:08:56.314Z,12.63
2019-03-20T10:13:58.050Z,10.87
2019-03-20T10:18:59.774Z,10.10
2019-03-20T10:24:01.597Z,7.47
2019-03-20T10:29:03.396Z,11.47
2019-03-20T10:34:05.155Z,11.87
2019-03-20T10:39:07.515Z,10.53
2019-03-20T10:44:09.340Z,10.60
2019-03-20T10:49:11.055Z,11.33
2019-03-20T10:54:12.885Z,8.47
2019-03-20T10:59:14.605Z,7.60
2019-03-20T11:04:16.431Z,14.93
2019-03-20T11:09:18.823Z,5.90
2019-03-20T11:14:20.694Z,9.83
2019-03-20T11:19:22.418Z,9.43
2019-03-20T11:24:24.153Z,7.57
2019-03-20T11:29:25.887Z,8.27
2019-03-20T11:34:27.609Z,7.37
2019-03-20T11:39:30.133Z,5.53
2019-03-20T11:44:32.105Z,6.93
2019-03-20T11:49:33.851Z,9.17
2019-03-20T11:54:35.631Z,7.47
2019-03-20T11:59:37.349Z,7.07
2019-03-20T12:04:39.074Z,10.47
2019-03-20T12:09:41.472Z,8.43
2019-03-20T12:14:43.259Z,11.93
2019-03-20T12:19:45.288Z,11.73
2019-03-20T12:24:47.145Z,10.40
2019-03-20T12:29:48.886Z,8.80
2019-03-20T12:34:50.594Z,5.97
2019-03-20T12:39:53.456Z,9.53
2019-03-20T12:44:55.445Z,9.50
2019-03-20T12:49:57.219Z,11.10
2019-03-20T12:54:59.001Z,6.93
2019-03-20T13:00:00.837Z,10.97
2019-03-20T13:05:02.554Z,10.60
2019-03-20T13:10:04.497Z,9.27
2019-03-20T13:15:07.042Z,9.57
2019-03-20T13:20:08.863Z,8.70
2019-03-20T13:25:11.105Z,10.57
2019-03-20T13:30:20.092Z,10.00
2019-03-20T13:35:17.872Z,9.80
2019-03-20T13:40:19.753Z,9.00
2019-03-20T13:45:21.505Z,8.40
2019-03-20T13:50:23.287Z,5.50
2019-03-20T13:55:25.035Z,8.10
2019-03-20T14:00:26.908Z,5.37
2019-03-20T14:05:28.619Z,7.53
2019-03-20T14:10:30.489Z,7.50
2019-03-20T14:15:32.220Z,9.37
2019-03-20T14:20:34.023Z,11.23
2019-03-20T14:25:35.742Z,11.57
2019-03-20T14:30:37.571Z,11.50
2019-03-20T14:35:39.341Z,9.70
2019-03-20T14:40:41.124Z,9.67
2019-03-20T14:45:42.855Z,8.93
2019-03-20T14:50:44.701Z,14.60
2019-03-20T14:55:46.451Z,8.23
2019-03-20T15:00:48.237Z,8.10
2019-03-20T15:05:49.977Z,8.47
2019-03-20T15:10:51.773Z,10.77
2019-03-20T15:15:58.173Z,12.83
2019-03-20T15:20:59.953Z,8.50
2019-03-20T15:26:01.666Z,8.77
2019-03-20T15:31:03.588Z,12.07
2019-03-20T15:36:05.316Z,9.87
2019-03-20T15:41:07.154Z,12.70
2019-03-20T15:46:08.890Z,12.57
2019-03-20T15:51:10.696Z,11.03
2019-03-20T15:56:12.490Z,12.87
2019-03-20T16:01:14.253Z,12.70
2019-03-20T16:06:16.039Z,12.00
2019-03-20T16:11:17.813Z,13.03
2019-03-20T16:16:19.596Z,12.47
2019-03-20T16:21:21.363Z,15.07
2019-03-20T16:26:23.093Z,14.13
2019-03-20T16:31:24.928Z,19.57
2019-03-20T16:36:26.702Z,15.83
2019-03-20T16:41:28.498Z,18.07
2019-03-20T16:46:30.245Z,20.30
2019-03-20T16:51:31.979Z,21.47
2019-03-20T16:56:33.794Z,24.43
2019-03-20T17:01:35.590Z,21.37
2019-03-20T17:06:37.366Z,20.57
2019-03-20T17:11:39.100Z,15.83
2019-03-20T17:16:42.627Z,19.20
2019-03-20T17:21:44.452Z,14.07
2019-03-20T17:26:46.202Z,14.63
2019-03-20T17:31:47.931Z,15.23
2019-03-20T17:36:49.745Z,17.13
2019-03-20T17:41:51.532Z,16.20
2019-03-20T17:46:53.310Z,16.07
2019-03-20T17:51:55.038Z,17.93
2019-03-20T17:56:56.868Z,16.50
2019-03-20T18:01:58.646Z,20.53
2019-03-20T18:07:00.406Z,18.47
2019-03-20T18:12:02.121Z,22.40
2019-03-20T18:17:04.067Z,21.80
2019-03-20T18:22:05.836Z,18.47
2019-03-20T18:27:07.612Z,21.30
2019-03-20T18:32:09.332Z,22.60
2019-03-20T18:37:11.069Z,18.20
2019-03-20T18:42:12.797Z,22.40
2019-03-20T18:47:14.621Z,24.20
2019-03-20T18:52:16.416Z,21.70
2019-03-20T18:57:18.191Z,28.10
2019-03-20T19:02:19.899Z,27.27
2019-03-20T19:07:21.753Z,22.90
2019-03-20T19:12:23.608Z,28.53
2019-03-20T19:17:25.406Z,22.67
2019-03-20T19:22:27.123Z,24.23
2019-03-20T19:27:28.950Z,24.67
2019-03-20T19:32:30.685Z,23.70
2019-03-20T19:37:32.509Z,20.33
2019-03-20T19:42:34.221Z,19.87
2019-03-20T19:47:36.042Z,17.20
2019-03-20T19:52:37.779Z,20.40
2019-03-20T19:57:39.617Z,18.13
2019-03-20T20:02:41.336Z,22.77
2019-03-20T20:07:43.050Z,19.50
2019-03-20T20:12:44.929Z,26.40
2019-03-20T20:17:47.194Z,20.83
2019-03-20T20:22:48.999Z,20.70
2019-03-20T20:27:50.761Z,21.57
2019-03-20T20:32:52.549Z,20.07
2019-03-20T20:37:54.265Z,21.80
2019-03-20T20:42:56.111Z,22.73
2019-03-20T20:47:57.846Z,17.70
2019-03-20T20:52:59.657Z,23.43
2019-03-20T20:58:01.397Z,20.83
2019-03-20T21:03:03.210Z,21.93
2019-03-20T21:08:04.939Z,19.83
2019-03-20T21:13:06.762Z,21.60
2019-03-20T21:18:46.074Z,22.97
2019-03-20T21:24:10.568Z,17.27
2019-03-20T21:29:30.658Z,23.30
2019-03-20T21:35:00.407Z,22.77
2019-03-20T21:40:02.754Z,18.67
2019-03-20T21:45:22.677Z,18.00
2019-03-20T21:50:46.688Z,25.13
2019-03-20T21:56:06.817Z,19.60
2019-03-20T22:01:40.247Z,23.33
2019-03-20T22:07:00.261Z,23.90
2019-03-20T22:12:33.638Z,21.00
2019-03-20T22:17:57.625Z,21.97
2019-03-20T22:23:37.281Z,19.27
2019-03-20T22:29:16.966Z,20.30
2019-03-20T22:34:36.844Z,23.23
2019-03-20T22:40:07.079Z,19.20
2019-03-20T22:45:19.286Z,22.50
2019-03-20T22:50:26.993Z,19.50
2019-03-20T22:55:36.345Z,18.97
2019-03-20T23:00:38.706Z,20.73
2019-03-20T23:05:40.810Z,19.43
2019-03-20T23:10:43.302Z,18.00
2019-03-20T23:15:45.384Z,19.43
2019-03-20T23:20:47.463Z,19.23
2019-03-20T23:25:49.560Z,14.67
2019-03-20T23:30:51.640Z,17.73
2019-03-20T23:35:53.704Z,16.40
2019-03-20T23:40:55.694Z,16.53
2019-03-20T23:45:58.046Z,17.93
2019-03-20T23:51:02.128Z,17.37
2019-03-20T23:56:04.138Z,15.97
